sensor_id;sensor_type;location;lat;lon;timestamp;P1;durP1;ratioP1;P2;durP2;ratioP2
24407;SDS011;12542;50.924;4.516;2023-06-04T00:01:59;2.55;;;1.00;;
24407;SDS011;12542;50.924;4.516;2023-06-04T00:04:27;2.58;;;0.82;;
24407;SDS011;12542;50.924;4.516;2023-06-04T00:06:53;1.98;;;0.88;;
24407;SDS011;12542;50.924;4.516;2023-06-04T00:09:19;2.65;;;0.95;;
24407;SDS011;12542;50.924;4.516;2023-06-04T00:11:45;2.25;;;1.33;;
24407;SDS011;12542;50.924;4.516;2023-06-04T00:14:11;1.23;;;0.77;;
24407;SDS011;12542;50.924;4.516;2023-06-04T00:16:38;3.00;;;0.80;;
24407;SDS011;12542;50.924;4.516;2023-06-04T00:19:06;5.32;;;1.15;;
24407;SDS011;12542;50.924;4.516;2023-06-04T00:21:31;3.42;;;1.10;;
24407;SDS011;12542;50.924;4.516;2023-06-04T00:23:57;1.67;;;1.08;;
24407;SDS011;12542;50.924;4.516;2023-06-04T00:26:24;5.38;;;1.08;;
24407;SDS011;12542;50.924;4.516;2023-06-04T00:28:50;4.70;;;0.85;;
24407;SDS011;12542;50.924;4.516;2023-06-04T00:31:16;5.57;;;1.00;;
24407;SDS011;12542;50.924;4.516;2023-06-04T00:33:42;3.20;;;1.27;;
24407;SDS011;12542;50.924;4.516;2023-06-04T00:36:07;1.88;;;0.90;;
24407;SDS011;12542;50.924;4.516;2023-06-04T00:38:33;3.28;;;1.10;;
24407;SDS011;12542;50.924;4.516;2023-06-04T00:40:59;4.57;;;1.00;;
24407;SDS011;12542;50.924;4.516;2023-06-04T00:43:24;8.20;;;2.13;;
24407;SDS011;12542;50.924;4.516;2023-06-04T00:45:52;5.07;;;1.02;;
24407;SDS011;12542;50.924;4.516;2023-06-04T00:48:18;2.53;;;0.90;;
24407;SDS011;12542;50.924;4.516;2023-06-04T00:50:45;3.53;;;0.93;;
24407;SDS011;12542;50.924;4.516;2023-06-04T00:53:12;2.35;;;1.25;;
24407;SDS011;12542;50.924;4.516;2023-06-04T00:55:38;1.65;;;1.00;;
24407;SDS011;12542;50.924;4.516;2023-06-04T00:58:03;2.63;;;1.20;;
24407;SDS011;12542;50.924;4.516;2023-06-04T01:00:30;3.58;;;1.23;;
24407;SDS011;12542;50.924;4.516;2023-06-04T01:02:58;2.60;;;1.15;;
24407;SDS011;12542;50.924;4.516;2023-06-04T01:08:11;5.70;;;1.08;;
24407;SDS011;12542;50.924;4.516;2023-06-04T01:10:38;3.88;;;1.38;;
24407;SDS011;12542;50.924;4.516;2023-06-04T01:13:14;5.43;;;1.20;;
24407;SDS011;12542;50.924;4.516;2023-06-04T01:15:40;4.53;;;1.58;;
24407;SDS011;12542;50.924;4.516;2023-06-04T01:18:06;2.30;;;1.15;;
24407;SDS011;12542;50.924;4.516;2023-06-04T01:20:39;4.20;;;1.30;;
24407;SDS011;12542;50.924;4.516;2023-06-04T01:23:14;3.25;;;1.35;;
24407;SDS011;12542;50.924;4.516;2023-06-04T01:25:49;5.72;;;1.30;;
24407;SDS011;12542;50.924;4.516;2023-06-04T01:28:16;3.83;;;1.50;;
24407;SDS011;12542;50.924;4.516;2023-06-04T01:30:43;2.47;;;1.40;;
24407;SDS011;12542;50.924;4.516;2023-06-04T01:33:14;4.28;;;1.73;;
24407;SDS011;12542;50.924;4.516;2023-06-04T01:35:44;8.40;;;1.55;;
24407;SDS011;12542;50.924;4.516;2023-06-04T01:38:10;2.45;;;1.25;;
24407;SDS011;12542;50.924;4.516;2023-06-04T01:40:36;4.45;;;1.67;;
24407;SDS011;12542;50.924;4.516;2023-06-04T01:43:02;2.95;;;1.50;;
24407;SDS011;12542;50.924;4.516;2023-06-04T01:45:28;4.57;;;1.30;;
24407;SDS011;12542;50.924;4.516;2023-06-04T01:47:54;7.55;;;1.50;;
24407;SDS011;12542;50.924;4.516;2023-06-04T01:50:21;2.38;;;1.15;;
24407;SDS011;12542;50.924;4.516;2023-06-04T01:52:47;4.80;;;1.77;;
24407;SDS011;12542;50.924;4.516;2023-06-04T01:55:15;2.13;;;1.40;;
24407;SDS011;12542;50.924;4.516;2023-06-04T01:57:44;4.53;;;1.77;;
24407;SDS011;12542;50.924;4.516;2023-06-04T02:00:11;3.33;;;1.40;;
24407;SDS011;12542;50.924;4.516;2023-06-04T02:02:37;2.85;;;1.40;;
24407;SDS011;12542;50.924;4.516;2023-06-04T02:05:04;7.18;;;1.55;;
24407;SDS011;12542;50.924;4.516;2023-06-04T02:07:36;5.18;;;1.80;;
24407;SDS011;12542;50.924;4.516;2023-06-04T02:10:09;4.05;;;1.48;;
24407;SDS011;12542;50.924;4.516;2023-06-04T02:12:57;3.03;;;1.58;;
24407;SDS011;12542;50.924;4.516;2023-06-04T02:15:25;5.70;;;1.75;;
24407;SDS011;12542;50.924;4.516;2023-06-04T02:17:55;5.30;;;2.00;;
24407;SDS011;12542;50.924;4.516;2023-06-04T02:20:25;3.42;;;1.52;;
24407;SDS011;12542;50.924;4.516;2023-06-04T02:22:53;7.32;;;1.92;;
24407;SDS011;12542;50.924;4.516;2023-06-04T02:25:25;2.90;;;1.30;;
24407;SDS011;12542;50.924;4.516;2023-06-04T02:27:51;8.25;;;2.10;;
24407;SDS011;12542;50.924;4.516;2023-06-04T02:30:16;3.60;;;1.80;;
24407;SDS011;12542;50.924;4.516;2023-06-04T02:32:42;4.30;;;1.30;;
24407;SDS011;12542;50.924;4.516;2023-06-04T02:35:09;6.95;;;1.90;;
24407;SDS011;12542;50.924;4.516;2023-06-04T02:37:35;3.28;;;1.33;;
24407;SDS011;12542;50.924;4.516;2023-06-04T02:40:01;4.30;;;1.75;;
24407;SDS011;12542;50.924;4.516;2023-06-04T02:42:27;3.92;;;1.80;;
24407;SDS011;12542;50.924;4.516;2023-06-04T02:44:53;3.83;;;1.60;;
24407;SDS011;12542;50.924;4.516;2023-06-04T02:47:19;5.40;;;2.10;;
24407;SDS011;12542;50.924;4.516;2023-06-04T02:49:44;7.00;;;2.10;;
24407;SDS011;12542;50.924;4.516;2023-06-04T02:52:11;8.20;;;1.85;;
24407;SDS011;12542;50.924;4.516;2023-06-04T02:54:37;8.73;;;1.73;;
24407;SDS011;12542;50.924;4.516;2023-06-04T02:57:03;3.15;;;1.70;;
24407;SDS011;12542;50.924;4.516;2023-06-04T02:59:29;5.93;;;1.83;;
24407;SDS011;12542;50.924;4.516;2023-06-04T03:01:54;11.48;;;2.40;;
24407;SDS011;12542;50.924;4.516;2023-06-04T03:04:20;10.50;;;2.25;;
24407;SDS011;12542;50.924;4.516;2023-06-04T03:06:49;7.03;;;1.70;;
24407;SDS011;12542;50.924;4.516;2023-06-04T03:09:22;8.15;;;2.10;;
24407;SDS011;12542;50.924;4.516;2023-06-04T03:11:47;4.70;;;2.00;;
24407;SDS011;12542;50.924;4.516;2023-06-04T03:14:13;3.47;;;1.88;;
24407;SDS011;12542;50.924;4.516;2023-06-04T03:16:39;7.60;;;1.70;;
24407;SDS011;12542;50.924;4.516;2023-06-04T03:19:06;6.40;;;3.15;;
24407;SDS011;12542;50.924;4.516;2023-06-04T03:21:31;3.70;;;2.00;;
24407;SDS011;12542;50.924;4.516;2023-06-04T03:23:57;4.15;;;1.85;;
24407;SDS011;12542;50.924;4.516;2023-06-04T03:26:23;4.45;;;2.15;;
24407;SDS011;12542;50.924;4.516;2023-06-04T03:28:48;3.80;;;2.10;;
24407;SDS011;12542;50.924;4.516;2023-06-04T03:31:14;5.55;;;2.03;;
24407;SDS011;12542;50.924;4.516;2023-06-04T03:33:40;3.20;;;1.70;;
24407;SDS011;12542;50.924;4.516;2023-06-04T03:36:05;3.47;;;1.92;;
24407;SDS011;12542;50.924;4.516;2023-06-04T03:38:31;3.60;;;1.73;;
24407;SDS011;12542;50.924;4.516;2023-06-04T03:40:57;5.38;;;1.55;;
24407;SDS011;12542;50.924;4.516;2023-06-04T03:43:23;5.63;;;2.30;;
24407;SDS011;12542;50.924;4.516;2023-06-04T03:45:48;5.38;;;1.75;;
24407;SDS011;12542;50.924;4.516;2023-06-04T03:48:14;6.10;;;1.60;;
24407;SDS011;12542;50.924;4.516;2023-06-04T03:50:40;3.40;;;1.90;;
24407;SDS011;12542;50.924;4.516;2023-06-04T03:53:06;4.75;;;2.13;;
24407;SDS011;12542;50.924;4.516;2023-06-04T03:55:32;6.22;;;2.38;;
24407;SDS011;12542;50.924;4.516;2023-06-04T03:58:02;4.43;;;1.73;;
24407;SDS011;12542;50.924;4.516;2023-06-04T04:00:28;5.80;;;2.08;;
24407;SDS011;12542;50.924;4.516;2023-06-04T04:02:53;4.55;;;2.38;;
24407;SDS011;12542;50.924;4.516;2023-06-04T04:05:21;6.97;;;2.00;;
24407;SDS011;12542;50.924;4.516;2023-06-04T04:07:47;5.40;;;1.58;;
24407;SDS011;12542;50.924;4.516;2023-06-04T04:10:13;3.50;;;1.85;;
24407;SDS011;12542;50.924;4.516;2023-06-04T04:12:38;3.80;;;1.98;;
24407;SDS011;12542;50.924;4.516;2023-06-04T04:15:04;7.03;;;2.40;;
24407;SDS011;12542;50.924;4.516;2023-06-04T04:17:30;2.60;;;1.45;;
24407;SDS011;12542;50.924;4.516;2023-06-04T04:19:56;5.28;;;1.95;;
24407;SDS011;12542;50.924;4.516;2023-06-04T04:22:21;3.92;;;1.90;;
24407;SDS011;12542;50.924;4.516;2023-06-04T04:24:47;3.78;;;1.98;;
24407;SDS011;12542;50.924;4.516;2023-06-04T04:27:13;4.32;;;1.80;;
24407;SDS011;12542;50.924;4.516;2023-06-04T04:29:40;7.65;;;1.60;;
24407;SDS011;12542;50.924;4.516;2023-06-04T04:32:07;4.00;;;1.58;;
24407;SDS011;12542;50.924;4.516;2023-06-04T04:34:51;3.90;;;1.90;;
24407;SDS011;12542;50.924;4.516;2023-06-04T04:37:19;5.47;;;1.80;;
24407;SDS011;12542;50.924;4.516;2023-06-04T04:39:49;6.53;;;1.90;;
24407;SDS011;12542;50.924;4.516;2023-06-04T04:42:16;3.75;;;1.73;;
24407;SDS011;12542;50.924;4.516;2023-06-04T04:44:43;6.57;;;1.77;;
24407;SDS011;12542;50.924;4.516;2023-06-04T04:47:12;3.60;;;1.85;;
24407;SDS011;12542;50.924;4.516;2023-06-04T04:49:43;3.63;;;1.90;;
24407;SDS011;12542;50.924;4.516;2023-06-04T04:52:09;5.53;;;1.85;;
24407;SDS011;12542;50.924;4.516;2023-06-04T04:54:34;4.07;;;1.58;;
24407;SDS011;12542;50.924;4.516;2023-06-04T04:57:00;5.78;;;1.85;;
24407;SDS011;12542;50.924;4.516;2023-06-04T04:59:26;4.45;;;1.85;;
24407;SDS011;12542;50.924;4.516;2023-06-04T05:01:52;6.25;;;2.25;;
24407;SDS011;12542;50.924;4.516;2023-06-04T05:04:18;6.55;;;1.67;;
24407;SDS011;12542;50.924;4.516;2023-06-04T05:06:43;4.93;;;1.60;;
24407;SDS011;12542;50.924;4.516;2023-06-04T05:09:09;7.15;;;1.98;;
24407;SDS011;12542;50.924;4.516;2023-06-04T05:11:36;4.00;;;1.67;;
24407;SDS011;12542;50.924;4.516;2023-06-04T05:14:01;6.95;;;1.67;;
24407;SDS011;12542;50.924;4.516;2023-06-04T05:16:27;3.38;;;1.45;;
24407;SDS011;12542;50.924;4.516;2023-06-04T05:18:53;6.25;;;1.92;;
24407;SDS011;12542;50.924;4.516;2023-06-04T05:21:21;4.40;;;2.03;;
24407;SDS011;12542;50.924;4.516;2023-06-04T05:23:47;6.38;;;1.95;;
24407;SDS011;12542;50.924;4.516;2023-06-04T05:26:13;3.88;;;1.98;;
24407;SDS011;12542;50.924;4.516;2023-06-04T05:28:40;3.80;;;2.15;;
24407;SDS011;12542;50.924;4.516;2023-06-04T05:31:09;7.75;;;2.10;;
24407;SDS011;12542;50.924;4.516;2023-06-04T05:33:35;7.63;;;1.80;;
24407;SDS011;12542;50.924;4.516;2023-06-04T05:36:00;7.45;;;2.30;;
24407;SDS011;12542;50.924;4.516;2023-06-04T05:38:26;4.82;;;2.15;;
24407;SDS011;12542;50.924;4.516;2023-06-04T05:40:55;2.42;;;1.45;;
24407;SDS011;12542;50.924;4.516;2023-06-04T05:43:21;3.90;;;1.80;;
24407;SDS011;12542;50.924;4.516;2023-06-04T05:45:48;5.18;;;1.80;;
24407;SDS011;12542;50.924;4.516;2023-06-04T05:48:13;4.53;;;1.73;;
24407;SDS011;12542;50.924;4.516;2023-06-04T05:50:39;7.43;;;2.17;;
24407;SDS011;12542;50.924;4.516;2023-06-04T05:53:05;2.47;;;1.75;;
24407;SDS011;12542;50.924;4.516;2023-06-04T05:55:30;4.43;;;1.83;;
24407;SDS011;12542;50.924;4.516;2023-06-04T05:57:56;4.50;;;2.03;;
24407;SDS011;12542;50.924;4.516;2023-06-04T06:00:22;3.67;;;1.80;;
24407;SDS011;12542;50.924;4.516;2023-06-04T06:02:52;5.10;;;1.65;;
24407;SDS011;12542;50.924;4.516;2023-06-04T06:05:19;7.47;;;1.98;;
24407;SDS011;12542;50.924;4.516;2023-06-04T06:07:47;4.65;;;2.33;;
24407;SDS011;12542;50.924;4.516;2023-06-04T06:10:15;4.10;;;1.88;;
24407;SDS011;12542;50.924;4.516;2023-06-04T06:12:41;4.13;;;2.03;;
24407;SDS011;12542;50.924;4.516;2023-06-04T06:15:07;3.95;;;1.80;;
24407;SDS011;12542;50.924;4.516;2023-06-04T06:17:33;4.53;;;2.03;;
24407;SDS011;12542;50.924;4.516;2023-06-04T06:20:00;6.75;;;2.25;;
24407;SDS011;12542;50.924;4.516;2023-06-04T06:22:30;4.30;;;2.38;;
24407;SDS011;12542;50.924;4.516;2023-06-04T06:25:00;6.68;;;1.95;;
24407;SDS011;12542;50.924;4.516;2023-06-04T06:27:27;7.78;;;2.30;;
24407;SDS011;12542;50.924;4.516;2023-06-04T06:29:53;4.32;;;2.30;;
24407;SDS011;12542;50.924;4.516;2023-06-04T06:32:18;7.80;;;2.08;;
24407;SDS011;12542;50.924;4.516;2023-06-04T06:34:46;3.92;;;2.10;;
24407;SDS011;12542;50.924;4.516;2023-06-04T06:37:12;4.63;;;1.98;;
24407;SDS011;12542;50.924;4.516;2023-06-04T06:39:38;3.08;;;1.70;;
24407;SDS011;12542;50.924;4.516;2023-06-04T06:42:03;5.63;;;2.10;;
24407;SDS011;12542;50.924;4.516;2023-06-04T06:44:32;4.90;;;1.73;;
24407;SDS011;12542;50.924;4.516;2023-06-04T06:46:57;3.53;;;2.10;;
24407;SDS011;12542;50.924;4.516;2023-06-04T06:49:26;4.25;;;1.85;;
24407;SDS011;12542;50.924;4.516;2023-06-04T06:51:54;3.40;;;1.60;;
24407;SDS011;12542;50.924;4.516;2023-06-04T06:54:19;4.78;;;1.77;;
24407;SDS011;12542;50.924;4.516;2023-06-04T06:56:47;3.63;;;1.85;;
24407;SDS011;12542;50.924;4.516;2023-06-04T06:59:14;3.53;;;1.92;;
24407;SDS011;12542;50.924;4.516;2023-06-04T07:01:40;5.28;;;1.52;;
24407;SDS011;12542;50.924;4.516;2023-06-04T07:04:05;12.15;;;1.88;;
24407;SDS011;12542;50.924;4.516;2023-06-04T07:06:31;7.50;;;1.80;;
24407;SDS011;12542;50.924;4.516;2023-06-04T07:08:58;6.03;;;1.65;;
24407;SDS011;12542;50.924;4.516;2023-06-04T07:11:23;5.53;;;1.65;;
24407;SDS011;12542;50.924;4.516;2023-06-04T07:13:50;9.35;;;2.80;;
24407;SDS011;12542;50.924;4.516;2023-06-04T07:16:18;6.28;;;1.95;;
24407;SDS011;12542;50.924;4.516;2023-06-04T07:18:47;3.45;;;1.60;;
24407;SDS011;12542;50.924;4.516;2023-06-04T07:21:13;3.83;;;1.70;;
24407;SDS011;12542;50.924;4.516;2023-06-04T07:23:39;8.75;;;2.20;;
24407;SDS011;12542;50.924;4.516;2023-06-04T07:26:05;11.13;;;2.22;;
24407;SDS011;12542;50.924;4.516;2023-06-04T07:28:31;3.85;;;1.50;;
24407;SDS011;12542;50.924;4.516;2023-06-04T07:30:57;5.10;;;2.05;;
24407;SDS011;12542;50.924;4.516;2023-06-04T07:33:23;4.68;;;1.80;;
24407;SDS011;12542;50.924;4.516;2023-06-04T07:35:50;4.43;;;1.70;;
24407;SDS011;12542;50.924;4.516;2023-06-04T07:38:15;7.90;;;2.17;;
24407;SDS011;12542;50.924;4.516;2023-06-04T07:40:42;3.42;;;1.40;;
24407;SDS011;12542;50.924;4.516;2023-06-04T07:43:10;2.53;;;1.35;;
24407;SDS011;12542;50.924;4.516;2023-06-04T07:45:35;5.25;;;1.40;;
24407;SDS011;12542;50.924;4.516;2023-06-04T07:48:01;4.97;;;1.45;;
24407;SDS011;12542;50.924;4.516;2023-06-04T07:50:27;8.82;;;1.52;;
24407;SDS011;12542;50.924;4.516;2023-06-04T07:52:52;4.07;;;1.33;;
24407;SDS011;12542;50.924;4.516;2023-06-04T07:55:18;3.38;;;1.20;;
24407;SDS011;12542;50.924;4.516;2023-06-04T07:57:44;2.08;;;1.00;;
24407;SDS011;12542;50.924;4.516;2023-06-04T08:00:10;4.15;;;1.25;;
24407;SDS011;12542;50.924;4.516;2023-06-04T08:02:36;3.85;;;1.38;;
24407;SDS011;12542;50.924;4.516;2023-06-04T08:05:02;3.72;;;1.10;;
24407;SDS011;12542;50.924;4.516;2023-06-04T08:07:30;2.67;;;1.05;;
24407;SDS011;12542;50.924;4.516;2023-06-04T08:09:56;3.13;;;1.05;;
24407;SDS011;12542;50.924;4.516;2023-06-04T08:12:22;6.22;;;1.10;;
24407;SDS011;12542;50.924;4.516;2023-06-04T08:14:48;3.08;;;1.02;;
24407;SDS011;12542;50.924;4.516;2023-06-04T08:17:15;2.35;;;0.90;;
24407;SDS011;12542;50.924;4.516;2023-06-04T08:19:41;6.85;;;1.13;;
24407;SDS011;12542;50.924;4.516;2023-06-04T08:22:07;1.65;;;1.00;;
24407;SDS011;12542;50.924;4.516;2023-06-04T08:24:34;6.50;;;1.17;;
24407;SDS011;12542;50.924;4.516;2023-06-04T08:27:00;3.05;;;1.13;;
24407;SDS011;12542;50.924;4.516;2023-06-04T08:29:25;2.30;;;1.15;;
24407;SDS011;12542;50.924;4.516;2023-06-04T08:31:51;3.35;;;0.93;;
24407;SDS011;12542;50.924;4.516;2023-06-04T08:34:17;3.03;;;1.00;;
24407;SDS011;12542;50.924;4.516;2023-06-04T08:36:43;4.45;;;1.23;;
24407;SDS011;12542;50.924;4.516;2023-06-04T08:39:09;3.78;;;0.77;;
24407;SDS011;12542;50.924;4.516;2023-06-04T08:41:41;2.47;;;0.80;;
24407;SDS011;12542;50.924;4.516;2023-06-04T08:44:09;2.88;;;1.05;;
24407;SDS011;12542;50.924;4.516;2023-06-04T08:46:38;2.40;;;0.82;;
24407;SDS011;12542;50.924;4.516;2023-06-04T08:49:05;6.40;;;1.00;;
24407;SDS011;12542;50.924;4.516;2023-06-04T08:51:33;2.90;;;0.55;;
24407;SDS011;12542;50.924;4.516;2023-06-04T08:54:03;3.08;;;0.88;;
24407;SDS011;12542;50.924;4.516;2023-06-04T08:56:30;2.10;;;0.90;;
24407;SDS011;12542;50.924;4.516;2023-06-04T08:58:59;2.25;;;0.77;;
24407;SDS011;12542;50.924;4.516;2023-06-04T09:01:29;3.95;;;1.00;;
24407;SDS011;12542;50.924;4.516;2023-06-04T09:04:03;5.10;;;0.80;;
24407;SDS011;12542;50.924;4.516;2023-06-04T09:06:32;4.43;;;1.20;;
24407;SDS011;12542;50.924;4.516;2023-06-04T09:08:58;4.90;;;1.02;;
24407;SDS011;12542;50.924;4.516;2023-06-04T09:11:36;2.20;;;0.90;;
24407;SDS011;12542;50.924;4.516;2023-06-04T09:14:07;3.10;;;0.88;;
24407;SDS011;12542;50.924;4.516;2023-06-04T09:16:44;2.88;;;0.98;;
24407;SDS011;12542;50.924;4.516;2023-06-04T09:19:15;1.33;;;0.80;;
24407;SDS011;12542;50.924;4.516;2023-06-04T09:22:00;6.65;;;0.88;;
24407;SDS011;12542;50.924;4.516;2023-06-04T09:24:39;5.13;;;1.27;;
24407;SDS011;12542;50.924;4.516;2023-06-04T09:27:15;3.20;;;0.90;;
24407;SDS011;12542;50.924;4.516;2023-06-04T09:29:52;3.05;;;0.90;;
24407;SDS011;12542;50.924;4.516;2023-06-04T09:32:20;2.45;;;1.00;;
24407;SDS011;12542;50.924;4.516;2023-06-04T09:34:50;1.95;;;0.90;;
24407;SDS011;12542;50.924;4.516;2023-06-04T09:37:17;2.85;;;1.02;;
24407;SDS011;12542;50.924;4.516;2023-06-04T09:39:43;3.50;;;1.10;;
24407;SDS011;12542;50.924;4.516;2023-06-04T09:42:19;5.53;;;1.17;;
24407;SDS011;12542;50.924;4.516;2023-06-04T09:44:46;4.15;;;1.10;;
24407;SDS011;12542;50.924;4.516;2023-06-04T09:47:11;3.35;;;1.00;;
24407;SDS011;12542;50.924;4.516;2023-06-04T09:49:44;6.78;;;1.00;;
24407;SDS011;12542;50.924;4.516;2023-06-04T09:52:10;2.40;;;1.20;;
24407;SDS011;12542;50.924;4.516;2023-06-04T09:54:38;2.95;;;1.20;;
24407;SDS011;12542;50.924;4.516;2023-06-04T09:57:05;5.30;;;1.25;;
24407;SDS011;12542;50.924;4.516;2023-06-04T09:59:43;3.17;;;1.08;;
24407;SDS011;12542;50.924;4.516;2023-06-04T10:02:11;3.42;;;1.10;;
24407;SDS011;12542;50.924;4.516;2023-06-04T10:04:41;2.53;;;0.95;;
24407;SDS011;12542;50.924;4.516;2023-06-04T10:07:09;2.30;;;1.05;;
24407;SDS011;12542;50.924;4.516;2023-06-04T10:09:38;4.13;;;1.27;;
24407;SDS011;12542;50.924;4.516;2023-06-04T10:14:41;3.90;;;1.00;;
24407;SDS011;12542;50.924;4.516;2023-06-04T10:17:11;3.40;;;1.23;;
24407;SDS011;12542;50.924;4.516;2023-06-04T10:19:38;2.35;;;0.95;;
24407;SDS011;12542;50.924;4.516;2023-06-04T10:22:08;3.55;;;0.88;;
24407;SDS011;12542;50.924;4.516;2023-06-04T10:24:36;3.90;;;1.00;;
24407;SDS011;12542;50.924;4.516;2023-06-04T10:27:02;3.55;;;1.13;;
24407;SDS011;12542;50.924;4.516;2023-06-04T10:29:35;3.78;;;1.30;;
24407;SDS011;12542;50.924;4.516;2023-06-04T10:32:01;4.68;;;1.02;;
24407;SDS011;12542;50.924;4.516;2023-06-04T10:34:27;4.32;;;1.20;;
24407;SDS011;12542;50.924;4.516;2023-06-04T10:36:54;2.10;;;1.00;;
24407;SDS011;12542;50.924;4.516;2023-06-04T10:39:27;3.22;;;1.13;;
24407;SDS011;12542;50.924;4.516;2023-06-04T10:42:03;4.40;;;1.05;;
24407;SDS011;12542;50.924;4.516;2023-06-04T10:44:45;4.75;;;1.33;;
24407;SDS011;12542;50.924;4.516;2023-06-04T10:47:20;3.80;;;1.02;;
24407;SDS011;12542;50.924;4.516;2023-06-04T10:49:47;4.05;;;1.05;;
24407;SDS011;12542;50.924;4.516;2023-06-04T10:52:12;3.33;;;1.00;;
24407;SDS011;12542;50.924;4.516;2023-06-04T10:54:38;4.57;;;1.30;;
24407;SDS011;12542;50.924;4.516;2023-06-04T10:57:14;2.72;;;0.73;;
24407;SDS011;12542;50.924;4.516;2023-06-04T10:59:42;2.85;;;1.20;;
24407;SDS011;12542;50.924;4.516;2023-06-04T11:02:26;2.95;;;0.70;;
24407;SDS011;12542;50.924;4.516;2023-06-04T11:04:59;3.85;;;0.95;;
24407;SDS011;12542;50.924;4.516;2023-06-04T11:07:26;6.80;;;1.23;;
24407;SDS011;12542;50.924;4.516;2023-06-04T11:09:52;3.75;;;1.02;;
24407;SDS011;12542;50.924;4.516;2023-06-04T11:12:18;4.55;;;0.98;;
24407;SDS011;12542;50.924;4.516;2023-06-04T11:14:57;3.33;;;0.80;;
24407;SDS011;12542;50.924;4.516;2023-06-04T11:17:24;3.22;;;1.05;;
24407;SDS011;12542;50.924;4.516;2023-06-04T11:19:50;3.45;;;1.20;;
24407;SDS011;12542;50.924;4.516;2023-06-04T11:22:20;2.67;;;0.88;;
24407;SDS011;12542;50.924;4.516;2023-06-04T11:24:46;3.55;;;1.05;;
24407;SDS011;12542;50.924;4.516;2023-06-04T11:27:11;3.35;;;0.98;;
24407;SDS011;12542;50.924;4.516;2023-06-04T11:29:37;3.45;;;1.05;;
24407;SDS011;12542;50.924;4.516;2023-06-04T11:32:03;1.65;;;0.80;;
24407;SDS011;12542;50.924;4.516;2023-06-04T11:34:30;3.45;;;1.08;;
24407;SDS011;12542;50.924;4.516;2023-06-04T11:37:07;4.78;;;0.98;;
24407;SDS011;12542;50.924;4.516;2023-06-04T11:39:38;2.85;;;0.80;;
24407;SDS011;12542;50.924;4.516;2023-06-04T11:42:05;2.60;;;0.90;;
24407;SDS011;12542;50.924;4.516;2023-06-04T11:44:32;3.40;;;1.13;;
24407;SDS011;12542;50.924;4.516;2023-06-04T11:46:58;3.33;;;0.88;;
24407;SDS011;12542;50.924;4.516;2023-06-04T11:49:26;3.63;;;0.95;;
24407;SDS011;12542;50.924;4.516;2023-06-04T11:51:53;2.55;;;0.77;;
24407;SDS011;12542;50.924;4.516;2023-06-04T11:54:20;4.28;;;1.20;;
24407;SDS011;12542;50.924;4.516;2023-06-04T11:56:47;1.95;;;1.00;;
24407;SDS011;12542;50.924;4.516;2023-06-04T11:59:15;2.50;;;0.93;;
24407;SDS011;12542;50.924;4.516;2023-06-04T12:01:45;2.10;;;1.02;;
24407;SDS011;12542;50.924;4.516;2023-06-04T12:04:13;2.70;;;0.98;;
24407;SDS011;12542;50.924;4.516;2023-06-04T12:06:50;4.10;;;1.15;;
24407;SDS011;12542;50.924;4.516;2023-06-04T12:09:23;2.20;;;0.85;;
24407;SDS011;12542;50.924;4.516;2023-06-04T12:11:57;3.80;;;1.20;;
24407;SDS011;12542;50.924;4.516;2023-06-04T12:17:05;1.95;;;1.00;;
24407;SDS011;12542;50.924;4.516;2023-06-04T12:19:47;7.38;;;1.23;;
24407;SDS011;12542;50.924;4.516;2023-06-04T12:22:14;3.72;;;1.30;;
24407;SDS011;12542;50.924;4.516;2023-06-04T12:24:47;2.72;;;1.10;;
24407;SDS011;12542;50.924;4.516;2023-06-04T12:27:18;6.30;;;1.23;;
24407;SDS011;12542;50.924;4.516;2023-06-04T12:29:56;3.55;;;0.80;;
24407;SDS011;12542;50.924;4.516;2023-06-04T12:32:22;4.57;;;1.30;;
24407;SDS011;12542;50.924;4.516;2023-06-04T12:34:47;2.88;;;1.02;;
24407;SDS011;12542;50.924;4.516;2023-06-04T12:37:15;3.03;;;1.45;;
24407;SDS011;12542;50.924;4.516;2023-06-04T12:39:41;4.18;;;1.10;;
24407;SDS011;12542;50.924;4.516;2023-06-04T12:42:08;1.85;;;0.85;;
24407;SDS011;12542;50.924;4.516;2023-06-04T12:44:38;2.17;;;0.90;;
24407;SDS011;12542;50.924;4.516;2023-06-04T12:47:04;2.45;;;0.93;;
24407;SDS011;12542;50.924;4.516;2023-06-04T12:49:30;5.00;;;0.82;;
24407;SDS011;12542;50.924;4.516;2023-06-04T12:51:56;3.10;;;1.13;;
24407;SDS011;12542;50.924;4.516;2023-06-04T12:54:22;2.67;;;1.00;;
24407;SDS011;12542;50.924;4.516;2023-06-04T12:56:48;4.00;;;1.15;;
24407;SDS011;12542;50.924;4.516;2023-06-04T12:59:14;3.25;;;1.25;;
24407;SDS011;12542;50.924;4.516;2023-06-04T13:01:40;2.05;;;1.00;;
24407;SDS011;12542;50.924;4.516;2023-06-04T13:04:06;5.60;;;1.13;;
24407;SDS011;12542;50.924;4.516;2023-06-04T13:06:34;2.22;;;1.00;;
24407;SDS011;12542;50.924;4.516;2023-06-04T13:09:03;1.25;;;0.77;;
24407;SDS011;12542;50.924;4.516;2023-06-04T13:11:40;3.95;;;1.15;;
24407;SDS011;12542;50.924;4.516;2023-06-04T13:14:09;4.93;;;1.10;;
24407;SDS011;12542;50.924;4.516;2023-06-04T13:16:35;2.92;;;1.00;;
24407;SDS011;12542;50.924;4.516;2023-06-04T13:19:01;3.05;;;1.10;;
24407;SDS011;12542;50.924;4.516;2023-06-04T13:21:27;2.58;;;1.10;;
24407;SDS011;12542;50.924;4.516;2023-06-04T13:23:53;4.63;;;1.10;;
24407;SDS011;12542;50.924;4.516;2023-06-04T13:26:19;3.47;;;1.02;;
24407;SDS011;12542;50.924;4.516;2023-06-04T13:28:49;1.48;;;0.80;;
24407;SDS011;12542;50.924;4.516;2023-06-04T13:31:15;2.47;;;1.17;;
24407;SDS011;12542;50.924;4.516;2023-06-04T13:33:40;1.85;;;1.10;;
24407;SDS011;12542;50.924;4.516;2023-06-04T13:36:06;2.63;;;1.10;;
24407;SDS011;12542;50.924;4.516;2023-06-04T13:38:32;3.78;;;1.02;;
24407;SDS011;12542;50.924;4.516;2023-06-04T13:40:58;1.40;;;0.70;;
24407;SDS011;12542;50.924;4.516;2023-06-04T13:43:24;2.65;;;1.00;;
24407;SDS011;12542;50.924;4.516;2023-06-04T13:45:50;2.25;;;0.80;;
24407;SDS011;12542;50.924;4.516;2023-06-04T13:48:16;2.90;;;1.10;;
24407;SDS011;12542;50.924;4.516;2023-06-04T13:50:42;1.95;;;1.27;;
24407;SDS011;12542;50.924;4.516;2023-06-04T13:53:08;1.75;;;0.80;;
24407;SDS011;12542;50.924;4.516;2023-06-04T13:55:34;4.32;;;1.45;;
24407;SDS011;12542;50.924;4.516;2023-06-04T13:58:00;2.20;;;1.10;;
24407;SDS011;12542;50.924;4.516;2023-06-04T14:00:26;5.75;;;1.23;;
24407;SDS011;12542;50.924;4.516;2023-06-04T14:02:52;3.17;;;0.98;;
24407;SDS011;12542;50.924;4.516;2023-06-04T14:05:20;1.75;;;0.90;;
24407;SDS011;12542;50.924;4.516;2023-06-04T14:07:46;3.05;;;1.13;;
24407;SDS011;12542;50.924;4.516;2023-06-04T14:10:12;4.05;;;1.10;;
24407;SDS011;12542;50.924;4.516;2023-06-04T14:12:38;2.75;;;0.90;;
24407;SDS011;12542;50.924;4.516;2023-06-04T14:15:09;4.65;;;1.10;;
24407;SDS011;12542;50.924;4.516;2023-06-04T14:17:36;1.80;;;1.10;;
24407;SDS011;12542;50.924;4.516;2023-06-04T14:20:03;2.80;;;1.10;;
24407;SDS011;12542;50.924;4.516;2023-06-04T14:22:36;4.28;;;0.95;;
24407;SDS011;12542;50.924;4.516;2023-06-04T14:25:03;1.58;;;0.90;;
24407;SDS011;12542;50.924;4.516;2023-06-04T14:27:29;3.10;;;0.88;;
24407;SDS011;12542;50.924;4.516;2023-06-04T14:29:55;2.97;;;1.13;;
24407;SDS011;12542;50.924;4.516;2023-06-04T14:32:21;2.67;;;1.20;;
24407;SDS011;12542;50.924;4.516;2023-06-04T14:34:47;2.95;;;0.90;;
24407;SDS011;12542;50.924;4.516;2023-06-04T14:37:13;3.38;;;1.42;;
24407;SDS011;12542;50.924;4.516;2023-06-04T14:39:38;4.20;;;0.90;;
24407;SDS011;12542;50.924;4.516;2023-06-04T14:42:04;4.28;;;1.10;;
24407;SDS011;12542;50.924;4.516;2023-06-04T14:44:30;3.40;;;0.90;;
24407;SDS011;12542;50.924;4.516;2023-06-04T14:46:56;3.08;;;0.95;;
24407;SDS011;12542;50.924;4.516;2023-06-04T14:49:22;2.75;;;1.13;;
24407;SDS011;12542;50.924;4.516;2023-06-04T14:51:48;5.05;;;1.05;;
24407;SDS011;12542;50.924;4.516;2023-06-04T14:54:13;5.50;;;0.88;;
24407;SDS011;12542;50.924;4.516;2023-06-04T14:56:39;3.47;;;1.02;;
24407;SDS011;12542;50.924;4.516;2023-06-04T14:59:05;2.35;;;1.00;;